sensor_id;sensor_type;location;lat;lon;timestamp;P1;durP1;ratioP1;P2;durP2;ratioP2
16029;SDS011;34770;49.272;11.070;2022-10-16T00:04:40;9.35;;;2.42;;
16029;SDS011;34770;49.272;11.070;2022-10-16T00:07:10;4.35;;;2.97;;
16029;SDS011;34770;49.272;11.070;2022-10-16T00:09:56;4.03;;;2.22;;
16029;SDS011;34770;49.272;11.070;2022-10-16T00:14:59;8.00;;;2.55;;
16029;SDS011;34770;49.272;11.070;2022-10-16T00:17:24;5.78;;;2.70;;
16029;SDS011;34770;49.272;11.070;2022-10-16T00:19:50;8.10;;;2.60;;
16029;SDS011;34770;49.272;11.070;2022-10-16T00:22:15;6.78;;;2.97;;
16029;SDS011;34770;49.272;11.070;2022-10-16T00:24:40;7.32;;;2.30;;
16029;SDS011;34770;49.272;11.070;2022-10-16T00:27:06;6.35;;;2.40;;
16029;SDS011;34770;49.272;11.070;2022-10-16T00:29:31;4.90;;;2.33;;
16029;SDS011;34770;49.272;11.070;2022-10-16T00:31:56;6.70;;;2.58;;
16029;SDS011;34770;49.272;11.070;2022-10-16T00:34:22;4.68;;;2.30;;
16029;SDS011;34770;49.272;11.070;2022-10-16T00:36:47;5.80;;;2.58;;
16029;SDS011;34770;49.272;11.070;2022-10-16T00:39:12;10.15;;;2.92;;
16029;SDS011;34770;49.272;11.070;2022-10-16T00:41:38;6.32;;;2.60;;
16029;SDS011;34770;49.272;11.070;2022-10-16T00:44:40;5.45;;;2.92;;
16029;SDS011;34770;49.272;11.070;2022-10-16T00:47:08;11.02;;;3.75;;
16029;SDS011;34770;49.272;11.070;2022-10-16T00:49:35;7.47;;;2.30;;
16029;SDS011;34770;49.272;11.070;2022-10-16T00:52:00;3.72;;;2.78;;
16029;SDS011;34770;49.272;11.070;2022-10-16T00:54:26;3.10;;;2.38;;
16029;SDS011;34770;49.272;11.070;2022-10-16T00:56:54;5.30;;;2.33;;
16029;SDS011;34770;49.272;11.070;2022-10-16T00:59:32;6.20;;;2.65;;
16029;SDS011;34770;49.272;11.070;2022-10-16T01:02:00;7.78;;;2.90;;
16029;SDS011;34770;49.272;11.070;2022-10-16T01:04:34;8.32;;;2.40;;
16029;SDS011;34770;49.272;11.070;2022-10-16T01:07:08;6.57;;;2.10;;
16029;SDS011;34770;49.272;11.070;2022-10-16T01:09:57;4.80;;;2.28;;
16029;SDS011;34770;49.272;11.070;2022-10-16T01:15:25;5.95;;;2.90;;
16029;SDS011;34770;49.272;11.070;2022-10-16T01:18:09;5.78;;;2.42;;
16029;SDS011;34770;49.272;11.070;2022-10-16T01:21:05;3.85;;;2.10;;
16029;SDS011;34770;49.272;11.070;2022-10-16T01:26:24;4.93;;;2.45;;
16029;SDS011;34770;49.272;11.070;2022-10-16T01:29:03;10.15;;;2.50;;
16029;SDS011;34770;49.272;11.070;2022-10-16T01:31:34;5.95;;;2.70;;
16029;SDS011;34770;49.272;11.070;2022-10-16T01:34:07;6.55;;;2.67;;
16029;SDS011;34770;49.272;11.070;2022-10-16T01:36:36;9.80;;;2.83;;
16029;SDS011;34770;49.272;11.070;2022-10-16T01:39:04;6.05;;;2.55;;
16029;SDS011;34770;49.272;11.070;2022-10-16T01:41:35;2.90;;;2.08;;
16029;SDS011;34770;49.272;11.070;2022-10-16T01:44:11;7.90;;;3.00;;
16029;SDS011;34770;49.272;11.070;2022-10-16T01:46:47;3.33;;;2.25;;
16029;SDS011;34770;49.272;11.070;2022-10-16T01:49:16;5.78;;;2.20;;
16029;SDS011;34770;49.272;11.070;2022-10-16T01:51:43;11.35;;;2.70;;
16029;SDS011;34770;49.272;11.070;2022-10-16T01:54:11;8.60;;;2.25;;
16029;SDS011;34770;49.272;11.070;2022-10-16T01:56:40;11.30;;;2.60;;
16029;SDS011;34770;49.272;11.070;2022-10-16T01:59:09;6.10;;;2.28;;
16029;SDS011;34770;49.272;11.070;2022-10-16T02:01:38;7.40;;;2.38;;
16029;SDS011;34770;49.272;11.070;2022-10-16T02:04:09;6.43;;;2.03;;
16029;SDS011;34770;49.272;11.070;2022-10-16T02:06:47;9.13;;;2.47;;
16029;SDS011;34770;49.272;11.070;2022-10-16T02:09:13;3.17;;;2.47;;
16029;SDS011;34770;49.272;11.070;2022-10-16T02:11:40;7.97;;;2.50;;
16029;SDS011;34770;49.272;11.070;2022-10-16T02:14:06;5.00;;;1.90;;
16029;SDS011;34770;49.272;11.070;2022-10-16T02:16:33;3.65;;;2.38;;
16029;SDS011;34770;49.272;11.070;2022-10-16T02:19:04;2.80;;;2.28;;
16029;SDS011;34770;49.272;11.070;2022-10-16T02:24:12;4.15;;;1.75;;
16029;SDS011;34770;49.272;11.070;2022-10-16T02:26:42;2.20;;;2.00;;
16029;SDS011;34770;49.272;11.070;2022-10-16T02:29:14;4.70;;;1.80;;
16029;SDS011;34770;49.272;11.070;2022-10-16T02:31:46;3.38;;;1.95;;
16029;SDS011;34770;49.272;11.070;2022-10-16T02:34:16;8.23;;;2.78;;
16029;SDS011;34770;49.272;11.070;2022-10-16T02:36:45;5.43;;;2.00;;
16029;SDS011;34770;49.272;11.070;2022-10-16T02:39:13;5.47;;;1.90;;
16029;SDS011;34770;49.272;11.070;2022-10-16T02:41:39;14.82;;;2.78;;
16029;SDS011;34770;49.272;11.070;2022-10-16T02:44:04;3.00;;;2.10;;
16029;SDS011;34770;49.272;11.070;2022-10-16T02:46:29;7.57;;;2.65;;
16029;SDS011;34770;49.272;11.070;2022-10-16T02:48:55;8.45;;;2.42;;
16029;SDS011;34770;49.272;11.070;2022-10-16T02:51:20;3.22;;;1.50;;
16029;SDS011;34770;49.272;11.070;2022-10-16T02:53:46;4.95;;;1.80;;
16029;SDS011;34770;49.272;11.070;2022-10-16T02:56:11;2.92;;;1.95;;
16029;SDS011;34770;49.272;11.070;2022-10-16T02:58:36;4.15;;;1.58;;
16029;SDS011;34770;49.272;11.070;2022-10-16T03:01:02;6.28;;;2.20;;
16029;SDS011;34770;49.272;11.070;2022-10-16T03:03:27;2.55;;;1.75;;
16029;SDS011;34770;49.272;11.070;2022-10-16T03:05:52;2.95;;;1.98;;
16029;SDS011;34770;49.272;11.070;2022-10-16T03:08:18;6.75;;;3.03;;
16029;SDS011;34770;49.272;11.070;2022-10-16T03:10:48;5.07;;;2.00;;
16029;SDS011;34770;49.272;11.070;2022-10-16T03:13:13;3.28;;;1.90;;
16029;SDS011;34770;49.272;11.070;2022-10-16T03:15:39;2.85;;;1.70;;
16029;SDS011;34770;49.272;11.070;2022-10-16T03:18:04;3.22;;;1.90;;
16029;SDS011;34770;49.272;11.070;2022-10-16T03:20:29;3.30;;;1.90;;
16029;SDS011;34770;49.272;11.070;2022-10-16T03:22:55;1.90;;;1.67;;
16029;SDS011;34770;49.272;11.070;2022-10-16T03:25:20;4.72;;;1.90;;
16029;SDS011;34770;49.272;11.070;2022-10-16T03:27:45;2.88;;;1.50;;
16029;SDS011;34770;49.272;11.070;2022-10-16T03:30:11;2.60;;;1.83;;
16029;SDS011;34770;49.272;11.070;2022-10-16T03:32:37;6.05;;;1.85;;
16029;SDS011;34770;49.272;11.070;2022-10-16T03:35:02;6.32;;;2.05;;
16029;SDS011;34770;49.272;11.070;2022-10-16T03:37:28;9.00;;;2.40;;
16029;SDS011;34770;49.272;11.070;2022-10-16T03:39:53;3.00;;;1.65;;
16029;SDS011;34770;49.272;11.070;2022-10-16T03:42:18;4.53;;;2.05;;
16029;SDS011;34770;49.272;11.070;2022-10-16T03:44:44;5.85;;;1.88;;
16029;SDS011;34770;49.272;11.070;2022-10-16T03:47:09;3.58;;;1.67;;
16029;SDS011;34770;49.272;11.070;2022-10-16T03:49:35;4.88;;;1.90;;
16029;SDS011;34770;49.272;11.070;2022-10-16T03:52:00;2.55;;;1.88;;
16029;SDS011;34770;49.272;11.070;2022-10-16T03:54:25;4.55;;;2.25;;
16029;SDS011;34770;49.272;11.070;2022-10-16T03:56:51;3.08;;;1.92;;
16029;SDS011;34770;49.272;11.070;2022-10-16T03:59:16;3.42;;;1.50;;
16029;SDS011;34770;49.272;11.070;2022-10-16T04:01:41;6.50;;;2.83;;
16029;SDS011;34770;49.272;11.070;2022-10-16T04:04:07;3.78;;;1.90;;
16029;SDS011;34770;49.272;11.070;2022-10-16T04:06:32;2.33;;;1.70;;
16029;SDS011;34770;49.272;11.070;2022-10-16T04:08:57;5.57;;;1.98;;
16029;SDS011;34770;49.272;11.070;2022-10-16T04:11:23;4.97;;;1.90;;
16029;SDS011;34770;49.272;11.070;2022-10-16T04:13:48;5.80;;;1.80;;
16029;SDS011;34770;49.272;11.070;2022-10-16T04:16:14;4.47;;;2.50;;
16029;SDS011;34770;49.272;11.070;2022-10-16T04:18:39;6.03;;;1.88;;
16029;SDS011;34770;49.272;11.070;2022-10-16T04:21:05;8.48;;;2.00;;
16029;SDS011;34770;49.272;11.070;2022-10-16T04:23:31;10.95;;;2.10;;
16029;SDS011;34770;49.272;11.070;2022-10-16T04:25:56;3.67;;;1.65;;
16029;SDS011;34770;49.272;11.070;2022-10-16T04:28:21;5.97;;;1.83;;
16029;SDS011;34770;49.272;11.070;2022-10-16T04:30:47;5.28;;;3.25;;
16029;SDS011;34770;49.272;11.070;2022-10-16T04:33:12;5.75;;;1.77;;
16029;SDS011;34770;49.272;11.070;2022-10-16T04:35:38;2.60;;;1.75;;
16029;SDS011;34770;49.272;11.070;2022-10-16T04:38:03;4.43;;;1.70;;
16029;SDS011;34770;49.272;11.070;2022-10-16T04:40:28;6.03;;;2.05;;
16029;SDS011;34770;49.272;11.070;2022-10-16T04:42:57;2.83;;;1.40;;
16029;SDS011;34770;49.272;11.070;2022-10-16T04:45:23;5.70;;;1.50;;
16029;SDS011;34770;49.272;11.070;2022-10-16T04:47:48;5.65;;;1.48;;
16029;SDS011;34770;49.272;11.070;2022-10-16T04:50:13;4.60;;;2.42;;
16029;SDS011;34770;49.272;11.070;2022-10-16T04:52:39;6.65;;;2.50;;
16029;SDS011;34770;49.272;11.070;2022-10-16T04:55:04;5.03;;;1.88;;
16029;SDS011;34770;49.272;11.070;2022-10-16T04:57:30;4.95;;;1.80;;
16029;SDS011;34770;49.272;11.070;2022-10-16T04:59:56;7.03;;;1.80;;
16029;SDS011;34770;49.272;11.070;2022-10-16T05:02:21;4.82;;;2.03;;
16029;SDS011;34770;49.272;11.070;2022-10-16T05:04:46;3.50;;;1.75;;
16029;SDS011;34770;49.272;11.070;2022-10-16T05:07:12;7.75;;;2.15;;
16029;SDS011;34770;49.272;11.070;2022-10-16T05:09:37;5.53;;;1.67;;
16029;SDS011;34770;49.272;11.070;2022-10-16T05:12:03;4.38;;;1.70;;
16029;SDS011;34770;49.272;11.070;2022-10-16T05:14:30;3.10;;;2.15;;
16029;SDS011;34770;49.272;11.070;2022-10-16T05:16:55;7.68;;;1.77;;
16029;SDS011;34770;49.272;11.070;2022-10-16T05:19:21;2.78;;;1.60;;
16029;SDS011;34770;49.272;11.070;2022-10-16T05:21:46;5.15;;;2.05;;
16029;SDS011;34770;49.272;11.070;2022-10-16T05:24:12;4.43;;;2.22;;
16029;SDS011;34770;49.272;11.070;2022-10-16T05:26:37;5.50;;;2.63;;
16029;SDS011;34770;49.272;11.070;2022-10-16T05:29:02;8.00;;;2.42;;
16029;SDS011;34770;49.272;11.070;2022-10-16T05:31:28;2.40;;;1.95;;
16029;SDS011;34770;49.272;11.070;2022-10-16T05:33:57;8.38;;;2.83;;
16029;SDS011;34770;49.272;11.070;2022-10-16T05:36:24;5.95;;;1.90;;
16029;SDS011;34770;49.272;11.070;2022-10-16T05:38:50;2.70;;;1.98;;
16029;SDS011;34770;49.272;11.070;2022-10-16T05:41:16;4.30;;;2.00;;
16029;SDS011;34770;49.272;11.070;2022-10-16T05:43:46;5.65;;;2.30;;
16029;SDS011;34770;49.272;11.070;2022-10-16T05:46:12;4.03;;;2.20;;
16029;SDS011;34770;49.272;11.070;2022-10-16T05:48:37;12.55;;;2.63;;
16029;SDS011;34770;49.272;11.070;2022-10-16T05:51:03;6.05;;;2.30;;
16029;SDS011;34770;49.272;11.070;2022-10-16T05:53:32;3.10;;;2.33;;
16029;SDS011;34770;49.272;11.070;2022-10-16T05:55:59;4.75;;;2.63;;
16029;SDS011;34770;49.272;11.070;2022-10-16T05:58:27;11.68;;;2.50;;
16029;SDS011;34770;49.272;11.070;2022-10-16T06:00:59;9.07;;;2.28;;
16029;SDS011;34770;49.272;11.070;2022-10-16T06:03:26;3.38;;;1.70;;
16029;SDS011;34770;49.272;11.070;2022-10-16T06:05:52;1.98;;;1.75;;
16029;SDS011;34770;49.272;11.070;2022-10-16T06:08:19;5.60;;;2.17;;
16029;SDS011;34770;49.272;11.070;2022-10-16T06:10:46;4.10;;;1.92;;
16029;SDS011;34770;49.272;11.070;2022-10-16T06:13:12;4.32;;;2.20;;
16029;SDS011;34770;49.272;11.070;2022-10-16T06:15:39;3.92;;;2.45;;
16029;SDS011;34770;49.272;11.070;2022-10-16T06:18:09;3.17;;;1.88;;
16029;SDS011;34770;49.272;11.070;2022-10-16T06:20:49;2.60;;;2.17;;
16029;SDS011;34770;49.272;11.070;2022-10-16T06:23:21;2.28;;;1.92;;
16029;SDS011;34770;49.272;11.070;2022-10-16T06:25:50;5.43;;;2.03;;
16029;SDS011;34770;49.272;11.070;2022-10-16T06:28:16;7.60;;;2.40;;
16029;SDS011;34770;49.272;11.070;2022-10-16T06:30:43;2.45;;;1.80;;
16029;SDS011;34770;49.272;11.070;2022-10-16T06:40:57;5.93;;;3.78;;
16029;SDS011;34770;49.272;11.070;2022-10-16T06:43:24;7.53;;;4.53;;
16029;SDS011;34770;49.272;11.070;2022-10-16T06:45:52;3.80;;;3.35;;
16029;SDS011;34770;49.272;11.070;2022-10-16T06:48:21;4.15;;;3.00;;
16029;SDS011;34770;49.272;11.070;2022-10-16T06:53:42;4.95;;;3.00;;
16029;SDS011;34770;49.272;11.070;2022-10-16T06:56:14;2.88;;;1.98;;
16029;SDS011;34770;49.272;11.070;2022-10-16T06:58:50;3.13;;;2.50;;
16029;SDS011;34770;49.272;11.070;2022-10-16T07:01:19;4.40;;;2.42;;
16029;SDS011;34770;49.272;11.070;2022-10-16T07:03:52;2.38;;;2.13;;
16029;SDS011;34770;49.272;11.070;2022-10-16T07:06:25;4.90;;;2.70;;
16029;SDS011;34770;49.272;11.070;2022-10-16T07:08:52;7.30;;;2.55;;
16029;SDS011;34770;49.272;11.070;2022-10-16T07:11:19;5.53;;;2.33;;
16029;SDS011;34770;49.272;11.070;2022-10-16T07:16:24;3.08;;;2.78;;
16029;SDS011;34770;49.272;11.070;2022-10-16T08:21:33;5.22;;;2.67;;
16029;SDS011;34770;49.272;11.070;2022-10-16T08:24:01;3.85;;;2.50;;
16029;SDS011;34770;49.272;11.070;2022-10-16T08:26:27;2.75;;;2.53;;
16029;SDS011;34770;49.272;11.070;2022-10-16T08:29:00;2.97;;;2.70;;
16029;SDS011;34770;49.272;11.070;2022-10-16T08:31:28;3.30;;;2.40;;
16029;SDS011;34770;49.272;11.070;2022-10-16T08:36:36;2.78;;;2.03;;
16029;SDS011;34770;49.272;11.070;2022-10-16T08:39:04;2.53;;;2.08;;
16029;SDS011;34770;49.272;11.070;2022-10-16T08:44:24;4.45;;;1.80;;
16029;SDS011;34770;49.272;11.070;2022-10-16T08:49:56;4.97;;;1.85;;
16029;SDS011;34770;49.272;11.070;2022-10-16T08:52:43;3.08;;;1.85;;
16029;SDS011;34770;49.272;11.070;2022-10-16T08:57:53;3.42;;;2.30;;
16029;SDS011;34770;49.272;11.070;2022-10-16T09:00:21;3.75;;;1.98;;
16029;SDS011;34770;49.272;11.070;2022-10-16T09:10:40;3.25;;;2.20;;
16029;SDS011;34770;49.272;11.070;2022-10-16T09:31:11;2.65;;;2.03;;
16029;SDS011;34770;49.272;11.070;2022-10-16T09:33:53;4.13;;;1.90;;
16029;SDS011;34770;49.272;11.070;2022-10-16T09:36:23;3.00;;;2.70;;
16029;SDS011;34770;49.272;11.070;2022-10-16T09:39:06;5.95;;;2.63;;
16029;SDS011;34770;49.272;11.070;2022-10-16T09:41:35;2.42;;;2.10;;
16029;SDS011;34770;49.272;11.070;2022-10-16T09:44:04;3.65;;;3.17;;
16029;SDS011;34770;49.272;11.070;2022-10-16T09:46:43;5.10;;;2.83;;
16029;SDS011;34770;49.272;11.070;2022-10-16T09:49:19;3.15;;;2.85;;
16029;SDS011;34770;49.272;11.070;2022-10-16T09:51:50;3.90;;;2.92;;
16029;SDS011;34770;49.272;11.070;2022-10-16T09:57:07;4.28;;;2.20;;
16029;SDS011;34770;49.272;11.070;2022-10-16T09:59:48;7.57;;;2.33;;
16029;SDS011;34770;49.272;11.070;2022-10-16T10:41:10;2.33;;;2.00;;
16029;SDS011;34770;49.272;11.070;2022-10-16T11:41:01;1.65;;;1.50;;
16029;SDS011;34770;49.272;11.070;2022-10-16T11:43:45;2.25;;;1.30;;
16029;SDS011;34770;49.272;11.070;2022-10-16T11:46:32;3.83;;;1.70;;
16029;SDS011;34770;49.272;11.070;2022-10-16T11:49:03;1.42;;;1.20;;
16029;SDS011;34770;49.272;11.070;2022-10-16T11:54:09;2.78;;;1.42;;
16029;SDS011;34770;49.272;11.070;2022-10-16T11:56:39;3.28;;;1.38;;
16029;SDS011;34770;49.272;11.070;2022-10-16T12:06:55;2.90;;;1.50;;
16029;SDS011;34770;49.272;11.070;2022-10-16T12:09:39;4.97;;;1.48;;
16029;SDS011;34770;49.272;11.070;2022-10-16T12:17:50;1.77;;;1.27;;
16029;SDS011;34770;49.272;11.070;2022-10-16T12:22:47;6.72;;;1.55;;
16029;SDS011;34770;49.272;11.070;2022-10-16T12:25:22;1.42;;;1.15;;
16029;SDS011;34770;49.272;11.070;2022-10-16T12:27:56;2.03;;;1.30;;
16029;SDS011;34770;49.272;11.070;2022-10-16T12:30:25;1.48;;;1.27;;
16029;SDS011;34770;49.272;11.070;2022-10-16T12:32:54;3.40;;;1.30;;
16029;SDS011;34770;49.272;11.070;2022-10-16T12:35:42;1.77;;;1.10;;
16029;SDS011;34770;49.272;11.070;2022-10-16T13:20:50;4.97;;;1.10;;
16029;SDS011;34770;49.272;11.070;2022-10-16T13:26:31;3.88;;;1.27;;
16029;SDS011;34770;49.272;11.070;2022-10-16T13:29:05;3.72;;;1.10;;
16029;SDS011;34770;49.272;11.070;2022-10-16T13:31:31;6.55;;;1.17;;
16029;SDS011;34770;49.272;11.070;2022-10-16T13:33:58;4.53;;;1.25;;
16029;SDS011;34770;49.272;11.070;2022-10-16T13:36:29;2.70;;;1.20;;
16029;SDS011;34770;49.272;11.070;2022-10-16T13:39:22;3.40;;;1.23;;
16029;SDS011;34770;49.272;11.070;2022-10-16T13:42:01;1.23;;;0.90;;
16029;SDS011;34770;49.272;11.070;2022-10-16T13:44:35;2.15;;;1.08;;
16029;SDS011;34770;49.272;11.070;2022-10-16T13:47:05;1.90;;;0.93;;
16029;SDS011;34770;49.272;11.070;2022-10-16T13:49:39;1.45;;;1.08;;
16029;SDS011;34770;49.272;11.070;2022-10-16T13:52:05;1.95;;;1.02;;
16029;SDS011;34770;49.272;11.070;2022-10-16T13:54:30;5.00;;;1.10;;
16029;SDS011;34770;49.272;11.070;2022-10-16T13:56:56;1.10;;;1.00;;
16029;SDS011;34770;49.272;11.070;2022-10-16T13:59:34;1.13;;;1.00;;
16029;SDS011;34770;49.272;11.070;2022-10-16T14:02:04;2.88;;;0.93;;
16029;SDS011;34770;49.272;11.070;2022-10-16T14:04:39;2.97;;;1.35;;
16029;SDS011;34770;49.272;11.070;2022-10-16T14:07:05;2.45;;;0.90;;
16029;SDS011;34770;49.272;11.070;2022-10-16T14:09:31;1.40;;;1.00;;
16029;SDS011;34770;49.272;11.070;2022-10-16T14:12:01;4.72;;;1.75;;
16029;SDS011;34770;49.272;11.070;2022-10-16T14:14:31;1.65;;;1.17;;
16029;SDS011;34770;49.272;11.070;2022-10-16T14:17:00;2.83;;;1.05;;
16029;SDS011;34770;49.272;11.070;2022-10-16T14:19:27;4.38;;;1.92;;
16029;SDS011;34770;49.272;11.070;2022-10-16T14:21:55;5.30;;;1.60;;
16029;SDS011;34770;49.272;11.070;2022-10-16T14:24:25;2.85;;;1.17;;
16029;SDS011;34770;49.272;11.070;2022-10-16T14:26:56;3.33;;;1.13;;
16029;SDS011;34770;49.272;11.070;2022-10-16T14:29:22;1.88;;;1.45;;
16029;SDS011;34770;49.272;11.070;2022-10-16T14:32:20;4.47;;;1.20;;
16029;SDS011;34770;49.272;11.070;2022-10-16T14:34:52;1.92;;;1.27;;
16029;SDS011;34770;49.272;11.070;2022-10-16T14:37:25;4.75;;;1.42;;
16029;SDS011;34770;49.272;11.070;2022-10-16T14:39:52;3.28;;;1.40;;
16029;SDS011;34770;49.272;11.070;2022-10-16T14:42:20;2.65;;;0.77;;
16029;SDS011;34770;49.272;11.070;2022-10-16T14:44:49;2.53;;;1.40;;
16029;SDS011;34770;49.272;11.070;2022-10-16T14:47:19;10.30;;;1.40;;
16029;SDS011;34770;49.272;11.070;2022-10-16T14:49:51;5.68;;;1.30;;
16029;SDS011;34770;49.272;11.070;2022-10-16T14:52:18;4.75;;;1.40;;
16029;SDS011;34770;49.272;11.070;2022-10-16T14:54:47;1.90;;;1.20;;
16029;SDS011;34770;49.272;11.070;2022-10-16T14:57:17;6.80;;;1.25;;
16029;SDS011;34770;49.272;11.070;2022-10-16T14:59:44;6.22;;;1.73;;
16029;SDS011;34770;49.272;11.070;2022-10-16T15:04:56;6.70;;;1.80;;
16029;SDS011;34770;49.272;11.070;2022-10-16T15:07:22;2.28;;;1.83;;
16029;SDS011;34770;49.272;11.070;2022-10-16T15:09:48;5.00;;;1.67;;
16029;SDS011;34770;49.272;11.070;2022-10-16T15:12:14;7.57;;;1.30;;
16029;SDS011;34770;49.272;11.070;2022-10-16T15:14:39;6.68;;;1.60;;
16029;SDS011;34770;49.272;11.070;2022-10-16T15:17:05;3.42;;;1.15;;
16029;SDS011;34770;49.272;11.070;2022-10-16T15:19:33;3.08;;;1.60;;
16029;SDS011;34770;49.272;11.070;2022-10-16T15:21:59;4.35;;;1.55;;
16029;SDS011;34770;49.272;11.070;2022-10-16T15:24:24;10.02;;;1.40;;
16029;SDS011;34770;49.272;11.070;2022-10-16T15:27:08;2.95;;;1.67;;
16029;SDS011;34770;49.272;11.070;2022-10-16T15:39:54;9.93;;;2.30;;
16029;SDS011;34770;49.272;11.070;2022-10-16T18:09:53;10.18;;;3.30;;
16029;SDS011;34770;49.272;11.070;2022-10-16T22:36:06;5.38;;;3.00;;
16029;SDS011;34770;49.272;11.070;2022-10-16T22:38:35;11.63;;;3.92;;
16029;SDS011;34770;49.272;11.070;2022-10-16T22:41:02;7.30;;;3.42;;
16029;SDS011;34770;49.272;11.070;2022-10-16T22:43:28;9.50;;;3.58;;
16029;SDS011;34770;49.272;11.070;2022-10-16T22:45:53;8.25;;;4.15;;
16029;SDS011;34770;49.272;11.070;2022-10-16T22:48:19;10.00;;;3.97;;
16029;SDS011;34770;49.272;11.070;2022-10-16T22:50:48;5.55;;;3.42;;
16029;SDS011;34770;49.272;11.070;2022-10-16T22:53:14;4.47;;;3.00;;
16029;SDS011;34770;49.272;11.070;2022-10-16T22:55:39;5.05;;;3.40;;
16029;SDS011;34770;49.272;11.070;2022-10-16T22:58:04;7.10;;;2.97;;
16029;SDS011;34770;49.272;11.070;2022-10-16T23:00:30;7.18;;;3.40;;
16029;SDS011;34770;49.272;11.070;2022-10-16T23:02:58;7.32;;;3.03;;
16029;SDS011;34770;49.272;11.070;2022-10-16T23:05:23;6.30;;;3.03;;
16029;SDS011;34770;49.272;11.070;2022-10-16T23:07:49;3.92;;;3.40;;
16029;SDS011;34770;49.272;11.070;2022-10-16T23:10:14;6.70;;;3.50;;
16029;SDS011;34770;49.272;11.070;2022-10-16T23:12:39;3.33;;;2.90;;
16029;SDS011;34770;49.272;11.070;2022-10-16T23:15:05;5.15;;;3.28;;
16029;SDS011;34770;49.272;11.070;2022-10-16T23:17:31;5.57;;;3.42;;
16029;SDS011;34770;49.272;11.070;2022-10-16T23:19:56;4.65;;;3.67;;
16029;SDS011;34770;49.272;11.070;2022-10-16T23:22:21;3.75;;;3.30;;
16029;SDS011;34770;49.272;11.070;2022-10-16T23:24:47;6.32;;;3.58;;
16029;SDS011;34770;49.272;11.070;2022-10-16T23:27:12;5.35;;;3.13;;
16029;SDS011;34770;49.272;11.070;2022-10-16T23:29:37;7.60;;;3.70;;
16029;SDS011;34770;49.272;11.070;2022-10-16T23:32:03;6.95;;;3.20;;
16029;SDS011;34770;49.272;11.070;2022-10-16T23:34:28;3.17;;;2.88;;
16029;SDS011;34770;49.272;11.070;2022-10-16T23:36:56;3.22;;;2.90;;
16029;SDS011;34770;49.272;11.070;2022-10-16T23:39:22;5.75;;;3.03;;
16029;SDS011;34770;49.272;11.070;2022-10-16T23:41:47;4.90;;;2.75;;
16029;SDS011;34770;49.272;11.070;2022-10-16T23:44:12;6.13;;;2.75;;
16029;SDS011;34770;49.272;11.070;2022-10-16T23:46:38;9.05;;;2.90;;
16029;SDS011;34770;49.272;11.070;2022-10-16T23:49:03;11.18;;;3.92;;
16029;SDS011;34770;49.272;11.070;2022-10-16T23:51:32;6.10;;;3.97;;
16029;SDS011;34770;49.272;11.070;2022-10-16T23:53:57;7.40;;;2.88;;
16029;SDS011;34770;49.272;11.070;2022-10-16T23:56:22;2.67;;;2.47;;
16029;SDS011;34770;49.272;11.070;2022-10-16T23:58:48;8.50;;;2.78;;
